sensor_id;sensor_type;location;lat;lon;timestamp;P1;durP1;ratioP1;P2;durP2;ratioP2
36599;SDS011;35385;55.668;37.508;2023-05-07T00:00:44;9.97;;;4.83;;
36599;SDS011;35385;55.668;37.508;2023-05-07T00:01:45;10.30;;;4.67;;
36599;SDS011;35385;55.668;37.508;2023-05-07T00:02:46;11.47;;;4.83;;
36599;SDS011;35385;55.668;37.508;2023-05-07T00:03:46;5.45;;;4.60;;
36599;SDS011;35385;55.668;37.508;2023-05-07T00:04:47;6.97;;;4.33;;
36599;SDS011;35385;55.668;37.508;2023-05-07T00:05:47;6.33;;;4.13;;
36599;SDS011;35385;55.668;37.508;2023-05-07T00:06:48;7.60;;;4.57;;
36599;SDS011;35385;55.668;37.508;2023-05-07T00:07:49;8.93;;;4.73;;
36599;SDS011;35385;55.668;37.508;2023-05-07T00:08:50;9.35;;;4.60;;
36599;SDS011;35385;55.668;37.508;2023-05-07T00:09:51;9.30;;;4.70;;
36599;SDS011;35385;55.668;37.508;2023-05-07T00:10:51;4.97;;;4.10;;
36599;SDS011;35385;55.668;37.508;2023-05-07T00:11:52;9.57;;;4.77;;
36599;SDS011;35385;55.668;37.508;2023-05-07T00:12:52;5.63;;;4.50;;
36599;SDS011;35385;55.668;37.508;2023-05-07T00:13:53;5.60;;;4.30;;
36599;SDS011;35385;55.668;37.508;2023-05-07T00:14:54;8.70;;;4.53;;
36599;SDS011;35385;55.668;37.508;2023-05-07T00:15:55;8.52;;;4.60;;
36599;SDS011;35385;55.668;37.508;2023-05-07T00:16:55;8.43;;;4.27;;
36599;SDS011;35385;55.668;37.508;2023-05-07T00:17:56;13.50;;;5.13;;
36599;SDS011;35385;55.668;37.508;2023-05-07T00:18:58;5.63;;;4.28;;
36599;SDS011;35385;55.668;37.508;2023-05-07T00:19:59;5.70;;;3.93;;
36599;SDS011;35385;55.668;37.508;2023-05-07T00:20:59;6.63;;;4.23;;
36599;SDS011;35385;55.668;37.508;2023-05-07T00:22:00;12.53;;;4.77;;
36599;SDS011;35385;55.668;37.508;2023-05-07T00:23:00;9.17;;;5.30;;
36599;SDS011;35385;55.668;37.508;2023-05-07T00:24:01;6.90;;;4.60;;
36599;SDS011;35385;55.668;37.508;2023-05-07T00:25:02;8.97;;;4.43;;
36599;SDS011;35385;55.668;37.508;2023-05-07T00:26:07;7.85;;;4.53;;
36599;SDS011;35385;55.668;37.508;2023-05-07T00:27:08;8.97;;;4.57;;
36599;SDS011;35385;55.668;37.508;2023-05-07T00:28:08;8.67;;;4.67;;
36599;SDS011;35385;55.668;37.508;2023-05-07T00:29:09;7.57;;;4.77;;
36599;SDS011;35385;55.668;37.508;2023-05-07T00:30:09;9.67;;;4.47;;
36599;SDS011;35385;55.668;37.508;2023-05-07T00:31:10;7.97;;;4.80;;
36599;SDS011;35385;55.668;37.508;2023-05-07T00:32:11;12.07;;;5.43;;
36599;SDS011;35385;55.668;37.508;2023-05-07T00:33:12;11.10;;;5.73;;
36599;SDS011;35385;55.668;37.508;2023-05-07T00:34:12;11.20;;;5.77;;
36599;SDS011;35385;55.668;37.508;2023-05-07T00:35:13;7.93;;;5.53;;
36599;SDS011;35385;55.668;37.508;2023-05-07T00:36:13;10.10;;;5.13;;
36599;SDS011;35385;55.668;37.508;2023-05-07T00:37:14;12.80;;;5.37;;
36599;SDS011;35385;55.668;37.508;2023-05-07T00:38:14;9.77;;;5.90;;
36599;SDS011;35385;55.668;37.508;2023-05-07T00:39:15;7.40;;;5.67;;
36599;SDS011;35385;55.668;37.508;2023-05-07T00:40:16;7.93;;;4.70;;
36599;SDS011;35385;55.668;37.508;2023-05-07T00:41:16;6.70;;;4.53;;
36599;SDS011;35385;55.668;37.508;2023-05-07T00:42:17;6.60;;;4.75;;
36599;SDS011;35385;55.668;37.508;2023-05-07T00:43:18;8.13;;;4.83;;
36599;SDS011;35385;55.668;37.508;2023-05-07T00:44:18;8.70;;;5.10;;
36599;SDS011;35385;55.668;37.508;2023-05-07T00:45:19;14.80;;;5.30;;
36599;SDS011;35385;55.668;37.508;2023-05-07T00:46:20;7.90;;;5.07;;
36599;SDS011;35385;55.668;37.508;2023-05-07T00:47:21;8.50;;;5.15;;
36599;SDS011;35385;55.668;37.508;2023-05-07T00:48:22;10.15;;;5.15;;
36599;SDS011;35385;55.668;37.508;2023-05-07T00:49:26;11.38;;;5.13;;
36599;SDS011;35385;55.668;37.508;2023-05-07T00:50:37;7.97;;;5.38;;
36599;SDS011;35385;55.668;37.508;2023-05-07T00:51:37;11.67;;;5.80;;
36599;SDS011;35385;55.668;37.508;2023-05-07T00:52:38;11.73;;;6.03;;
36599;SDS011;35385;55.668;37.508;2023-05-07T00:53:39;8.18;;;5.78;;
36599;SDS011;35385;55.668;37.508;2023-05-07T00:54:40;10.40;;;5.63;;
36599;SDS011;35385;55.668;37.508;2023-05-07T00:55:42;7.03;;;5.38;;
36599;SDS011;35385;55.668;37.508;2023-05-07T00:56:42;8.43;;;4.80;;
36599;SDS011;35385;55.668;37.508;2023-05-07T00:57:43;7.37;;;5.03;;
36599;SDS011;35385;55.668;37.508;2023-05-07T00:58:44;9.45;;;5.32;;
36599;SDS011;35385;55.668;37.508;2023-05-07T00:59:45;7.97;;;5.30;;
36599;SDS011;35385;55.668;37.508;2023-05-07T01:00:46;8.30;;;5.00;;
36599;SDS011;35385;55.668;37.508;2023-05-07T01:01:46;8.10;;;4.63;;
36599;SDS011;35385;55.668;37.508;2023-05-07T01:02:47;5.80;;;3.95;;
36599;SDS011;35385;55.668;37.508;2023-05-07T01:03:48;8.80;;;4.07;;
36599;SDS011;35385;55.668;37.508;2023-05-07T01:04:49;5.20;;;3.97;;
36599;SDS011;35385;55.668;37.508;2023-05-07T01:05:49;6.47;;;4.30;;
36599;SDS011;35385;55.668;37.508;2023-05-07T01:06:51;8.10;;;4.53;;
36599;SDS011;35385;55.668;37.508;2023-05-07T01:07:53;5.55;;;3.90;;
36599;SDS011;35385;55.668;37.508;2023-05-07T01:08:56;5.38;;;4.05;;
36599;SDS011;35385;55.668;37.508;2023-05-07T01:09:57;7.18;;;4.40;;
36599;SDS011;35385;55.668;37.508;2023-05-07T01:10:58;4.22;;;3.63;;
36599;SDS011;35385;55.668;37.508;2023-05-07T01:12:00;4.85;;;3.70;;
36599;SDS011;35385;55.668;37.508;2023-05-07T01:13:01;5.47;;;3.83;;
36599;SDS011;35385;55.668;37.508;2023-05-07T01:14:02;4.80;;;3.70;;
36599;SDS011;35385;55.668;37.508;2023-05-07T01:15:03;6.18;;;3.80;;
36599;SDS011;35385;55.668;37.508;2023-05-07T01:16:05;3.53;;;3.22;;
36599;SDS011;35385;55.668;37.508;2023-05-07T01:17:06;6.38;;;3.50;;
36599;SDS011;35385;55.668;37.508;2023-05-07T01:18:08;5.57;;;3.75;;
36599;SDS011;35385;55.668;37.508;2023-05-07T01:19:08;6.30;;;3.90;;
36599;SDS011;35385;55.668;37.508;2023-05-07T01:20:13;5.88;;;3.78;;
36599;SDS011;35385;55.668;37.508;2023-05-07T01:21:14;5.40;;;3.50;;
36599;SDS011;35385;55.668;37.508;2023-05-07T01:23:35;6.28;;;3.70;;
36599;SDS011;35385;55.668;37.508;2023-05-07T01:24:36;6.82;;;4.25;;
36599;SDS011;35385;55.668;37.508;2023-05-07T01:25:37;5.05;;;4.07;;
36599;SDS011;35385;55.668;37.508;2023-05-07T01:26:38;5.50;;;3.40;;
36599;SDS011;35385;55.668;37.508;2023-05-07T01:27:40;4.82;;;3.30;;
36599;SDS011;35385;55.668;37.508;2023-05-07T01:28:41;6.80;;;3.83;;
36599;SDS011;35385;55.668;37.508;2023-05-07T01:29:41;11.53;;;4.20;;
36599;SDS011;35385;55.668;37.508;2023-05-07T01:30:42;5.77;;;3.93;;
36599;SDS011;35385;55.668;37.508;2023-05-07T01:31:47;6.43;;;3.92;;
36599;SDS011;35385;55.668;37.508;2023-05-07T01:32:50;7.97;;;3.78;;
36599;SDS011;35385;55.668;37.508;2023-05-07T01:33:56;6.03;;;3.72;;
36599;SDS011;35385;55.668;37.508;2023-05-07T01:35:00;5.20;;;3.80;;
36599;SDS011;35385;55.668;37.508;2023-05-07T01:36:04;4.32;;;3.25;;
36599;SDS011;35385;55.668;37.508;2023-05-07T01:37:07;5.05;;;3.88;;
36599;SDS011;35385;55.668;37.508;2023-05-07T01:38:08;7.15;;;3.88;;
36599;SDS011;35385;55.668;37.508;2023-05-07T01:39:09;6.13;;;3.75;;
36599;SDS011;35385;55.668;37.508;2023-05-07T01:41:11;5.70;;;3.70;;
36599;SDS011;35385;55.668;37.508;2023-05-07T01:43:13;4.88;;;3.85;;
36599;SDS011;35385;55.668;37.508;2023-05-07T01:44:14;7.05;;;3.70;;
36599;SDS011;35385;55.668;37.508;2023-05-07T01:45:16;8.32;;;4.10;;
36599;SDS011;35385;55.668;37.508;2023-05-07T01:46:17;4.57;;;3.27;;
36599;SDS011;35385;55.668;37.508;2023-05-07T01:47:18;9.10;;;4.88;;
36599;SDS011;35385;55.668;37.508;2023-05-07T01:48:21;7.82;;;4.75;;
36599;SDS011;35385;55.668;37.508;2023-05-07T01:49:22;6.68;;;4.55;;
36599;SDS011;35385;55.668;37.508;2023-05-07T01:50:23;6.70;;;5.20;;
36599;SDS011;35385;55.668;37.508;2023-05-07T01:51:25;10.57;;;6.25;;
36599;SDS011;35385;55.668;37.508;2023-05-07T01:52:27;11.75;;;6.20;;
36599;SDS011;35385;55.668;37.508;2023-05-07T01:54:28;10.52;;;6.00;;
36599;SDS011;35385;55.668;37.508;2023-05-07T01:55:29;9.97;;;6.10;;
36599;SDS011;35385;55.668;37.508;2023-05-07T01:56:30;9.87;;;6.13;;
36599;SDS011;35385;55.668;37.508;2023-05-07T01:57:30;10.90;;;6.13;;
36599;SDS011;35385;55.668;37.508;2023-05-07T01:58:31;15.10;;;6.87;;
36599;SDS011;35385;55.668;37.508;2023-05-07T01:59:31;10.40;;;6.83;;
36599;SDS011;35385;55.668;37.508;2023-05-07T02:00:32;9.97;;;5.57;;
36599;SDS011;35385;55.668;37.508;2023-05-07T02:01:33;10.47;;;5.60;;
36599;SDS011;35385;55.668;37.508;2023-05-07T02:02:33;10.33;;;5.73;;
36599;SDS011;35385;55.668;37.508;2023-05-07T02:03:34;8.87;;;5.33;;
36599;SDS011;35385;55.668;37.508;2023-05-07T02:04:34;13.80;;;5.93;;
36599;SDS011;35385;55.668;37.508;2023-05-07T02:05:35;8.67;;;5.53;;
36599;SDS011;35385;55.668;37.508;2023-05-07T02:06:35;11.20;;;6.03;;
36599;SDS011;35385;55.668;37.508;2023-05-07T02:07:36;10.17;;;5.70;;
36599;SDS011;35385;55.668;37.508;2023-05-07T02:08:37;10.83;;;5.77;;
36599;SDS011;35385;55.668;37.508;2023-05-07T02:09:37;9.13;;;5.80;;
36599;SDS011;35385;55.668;37.508;2023-05-07T02:10:38;10.13;;;5.67;;
36599;SDS011;35385;55.668;37.508;2023-05-07T02:11:39;9.18;;;5.72;;
36599;SDS011;35385;55.668;37.508;2023-05-07T02:12:39;10.03;;;5.30;;
36599;SDS011;35385;55.668;37.508;2023-05-07T02:13:41;10.30;;;5.63;;
36599;SDS011;35385;55.668;37.508;2023-05-07T02:14:41;10.10;;;5.95;;
36599;SDS011;35385;55.668;37.508;2023-05-07T02:15:42;12.13;;;5.93;;
36599;SDS011;35385;55.668;37.508;2023-05-07T02:16:46;10.05;;;4.93;;
36599;SDS011;35385;55.668;37.508;2023-05-07T02:18:03;11.43;;;5.20;;
36599;SDS011;35385;55.668;37.508;2023-05-07T02:19:08;11.73;;;4.63;;
36599;SDS011;35385;55.668;37.508;2023-05-07T02:20:09;8.45;;;5.30;;
36599;SDS011;35385;55.668;37.508;2023-05-07T02:21:13;8.95;;;4.68;;
36599;SDS011;35385;55.668;37.508;2023-05-07T02:22:14;7.17;;;4.33;;
36599;SDS011;35385;55.668;37.508;2023-05-07T02:23:14;6.50;;;4.53;;
36599;SDS011;35385;55.668;37.508;2023-05-07T02:24:15;7.03;;;4.10;;
36599;SDS011;35385;55.668;37.508;2023-05-07T02:25:15;11.53;;;4.43;;
36599;SDS011;35385;55.668;37.508;2023-05-07T02:26:16;7.60;;;4.70;;
36599;SDS011;35385;55.668;37.508;2023-05-07T02:27:17;6.63;;;4.50;;
36599;SDS011;35385;55.668;37.508;2023-05-07T02:28:17;8.17;;;4.80;;
36599;SDS011;35385;55.668;37.508;2023-05-07T02:29:18;6.97;;;4.57;;
36599;SDS011;35385;55.668;37.508;2023-05-07T02:30:18;7.47;;;4.80;;
36599;SDS011;35385;55.668;37.508;2023-05-07T02:31:21;8.05;;;4.30;;
36599;SDS011;35385;55.668;37.508;2023-05-07T02:32:21;6.77;;;4.63;;
36599;SDS011;35385;55.668;37.508;2023-05-07T02:33:23;5.90;;;4.70;;
36599;SDS011;35385;55.668;37.508;2023-05-07T02:34:23;9.13;;;5.00;;
36599;SDS011;35385;55.668;37.508;2023-05-07T02:35:24;5.97;;;5.00;;
36599;SDS011;35385;55.668;37.508;2023-05-07T02:36:26;8.57;;;4.63;;
36599;SDS011;35385;55.668;37.508;2023-05-07T02:37:26;6.13;;;4.70;;
36599;SDS011;35385;55.668;37.508;2023-05-07T02:38:27;8.07;;;4.83;;
36599;SDS011;35385;55.668;37.508;2023-05-07T02:39:27;7.10;;;5.10;;
36599;SDS011;35385;55.668;37.508;2023-05-07T02:40:28;7.67;;;4.97;;
36599;SDS011;35385;55.668;37.508;2023-05-07T02:41:29;6.83;;;4.97;;
36599;SDS011;35385;55.668;37.508;2023-05-07T02:42:29;7.77;;;5.23;;
36599;SDS011;35385;55.668;37.508;2023-05-07T02:43:30;8.67;;;4.90;;
36599;SDS011;35385;55.668;37.508;2023-05-07T02:44:31;12.47;;;5.53;;
36599;SDS011;35385;55.668;37.508;2023-05-07T02:45:32;6.20;;;4.93;;
36599;SDS011;35385;55.668;37.508;2023-05-07T02:46:33;8.60;;;4.78;;
36599;SDS011;35385;55.668;37.508;2023-05-07T02:47:33;6.57;;;4.80;;
36599;SDS011;35385;55.668;37.508;2023-05-07T02:48:34;14.00;;;5.03;;
36599;SDS011;35385;55.668;37.508;2023-05-07T02:49:35;6.82;;;5.15;;
36599;SDS011;35385;55.668;37.508;2023-05-07T02:50:36;10.43;;;5.63;;
36599;SDS011;35385;55.668;37.508;2023-05-07T02:51:36;6.17;;;4.83;;
36599;SDS011;35385;55.668;37.508;2023-05-07T02:52:37;7.63;;;5.03;;
36599;SDS011;35385;55.668;37.508;2023-05-07T02:53:37;6.87;;;5.33;;
36599;SDS011;35385;55.668;37.508;2023-05-07T02:54:38;7.20;;;5.20;;
36599;SDS011;35385;55.668;37.508;2023-05-07T02:55:38;9.97;;;5.20;;
36599;SDS011;35385;55.668;37.508;2023-05-07T02:56:39;7.43;;;4.77;;
36599;SDS011;35385;55.668;37.508;2023-05-07T02:57:40;10.60;;;5.00;;
36599;SDS011;35385;55.668;37.508;2023-05-07T02:58:40;8.90;;;4.73;;
36599;SDS011;35385;55.668;37.508;2023-05-07T02:59:42;8.02;;;4.93;;
36599;SDS011;35385;55.668;37.508;2023-05-07T03:00:43;6.88;;;5.05;;
36599;SDS011;35385;55.668;37.508;2023-05-07T03:01:43;11.37;;;5.37;;
36599;SDS011;35385;55.668;37.508;2023-05-07T03:02:45;8.55;;;4.47;;
36599;SDS011;35385;55.668;37.508;2023-05-07T03:03:45;8.53;;;4.63;;
36599;SDS011;35385;55.668;37.508;2023-05-07T03:04:46;9.27;;;5.23;;
36599;SDS011;35385;55.668;37.508;2023-05-07T03:05:47;6.57;;;4.33;;
36599;SDS011;35385;55.668;37.508;2023-05-07T03:06:47;14.83;;;5.23;;
36599;SDS011;35385;55.668;37.508;2023-05-07T03:07:48;7.40;;;4.67;;
36599;SDS011;35385;55.668;37.508;2023-05-07T03:08:49;7.50;;;4.57;;
36599;SDS011;35385;55.668;37.508;2023-05-07T03:09:49;7.87;;;5.13;;
36599;SDS011;35385;55.668;37.508;2023-05-07T03:10:50;11.50;;;4.77;;
36599;SDS011;35385;55.668;37.508;2023-05-07T03:11:51;7.05;;;4.55;;
36599;SDS011;35385;55.668;37.508;2023-05-07T03:12:52;7.53;;;5.15;;
36599;SDS011;35385;55.668;37.508;2023-05-07T03:13:52;9.90;;;4.67;;
36599;SDS011;35385;55.668;37.508;2023-05-07T03:14:53;6.87;;;4.20;;
36599;SDS011;35385;55.668;37.508;2023-05-07T03:15:53;7.23;;;4.67;;
36599;SDS011;35385;55.668;37.508;2023-05-07T03:16:54;4.57;;;3.60;;
36599;SDS011;35385;55.668;37.508;2023-05-07T03:17:55;8.03;;;4.10;;
36599;SDS011;35385;55.668;37.508;2023-05-07T03:18:55;9.30;;;4.30;;
36599;SDS011;35385;55.668;37.508;2023-05-07T03:19:56;6.70;;;4.10;;
36599;SDS011;35385;55.668;37.508;2023-05-07T03:20:56;5.63;;;4.17;;
36599;SDS011;35385;55.668;37.508;2023-05-07T03:21:57;7.50;;;4.27;;
36599;SDS011;35385;55.668;37.508;2023-05-07T03:22:58;11.33;;;4.13;;
36599;SDS011;35385;55.668;37.508;2023-05-07T03:23:58;6.67;;;3.73;;
36599;SDS011;35385;55.668;37.508;2023-05-07T03:24:59;12.40;;;3.80;;
36599;SDS011;35385;55.668;37.508;2023-05-07T03:26:00;5.13;;;3.80;;
36599;SDS011;35385;55.668;37.508;2023-05-07T03:27:00;6.40;;;4.07;;
36599;SDS011;35385;55.668;37.508;2023-05-07T03:28:01;5.70;;;4.10;;
36599;SDS011;35385;55.668;37.508;2023-05-07T03:29:02;4.73;;;3.80;;
36599;SDS011;35385;55.668;37.508;2023-05-07T03:30:03;9.63;;;4.13;;
36599;SDS011;35385;55.668;37.508;2023-05-07T03:31:06;5.18;;;3.70;;
36599;SDS011;35385;55.668;37.508;2023-05-07T03:32:07;4.90;;;3.63;;
36599;SDS011;35385;55.668;37.508;2023-05-07T03:33:07;6.13;;;3.57;;
36599;SDS011;35385;55.668;37.508;2023-05-07T03:34:08;6.73;;;3.93;;
36599;SDS011;35385;55.668;37.508;2023-05-07T03:35:08;5.33;;;3.33;;
36599;SDS011;35385;55.668;37.508;2023-05-07T03:36:09;5.72;;;3.63;;
36599;SDS011;35385;55.668;37.508;2023-05-07T03:37:10;7.20;;;4.13;;
36599;SDS011;35385;55.668;37.508;2023-05-07T03:38:11;5.33;;;3.80;;
36599;SDS011;35385;55.668;37.508;2023-05-07T03:39:11;4.97;;;3.60;;
36599;SDS011;35385;55.668;37.508;2023-05-07T03:40:12;5.03;;;3.93;;
36599;SDS011;35385;55.668;37.508;2023-05-07T03:41:13;5.63;;;3.70;;
36599;SDS011;35385;55.668;37.508;2023-05-07T03:42:14;4.73;;;3.17;;
36599;SDS011;35385;55.668;37.508;2023-05-07T03:43:15;5.75;;;3.50;;
36599;SDS011;35385;55.668;37.508;2023-05-07T03:44:15;5.07;;;3.47;;
36599;SDS011;35385;55.668;37.508;2023-05-07T03:45:16;4.13;;;3.50;;
36599;SDS011;35385;55.668;37.508;2023-05-07T03:46:17;5.23;;;3.13;;
36599;SDS011;35385;55.668;37.508;2023-05-07T03:47:17;6.70;;;3.30;;
36599;SDS011;35385;55.668;37.508;2023-05-07T03:48:18;5.00;;;3.23;;
36599;SDS011;35385;55.668;37.508;2023-05-07T03:49:18;4.57;;;3.40;;
36599;SDS011;35385;55.668;37.508;2023-05-07T03:50:19;4.03;;;3.00;;
36599;SDS011;35385;55.668;37.508;2023-05-07T03:51:20;5.40;;;3.50;;
36599;SDS011;35385;55.668;37.508;2023-05-07T03:52:20;8.00;;;3.57;;
36599;SDS011;35385;55.668;37.508;2023-05-07T03:53:25;5.25;;;3.13;;
36599;SDS011;35385;55.668;37.508;2023-05-07T03:54:26;6.70;;;3.60;;
36599;SDS011;35385;55.668;37.508;2023-05-07T03:55:27;9.73;;;3.67;;
36599;SDS011;35385;55.668;37.508;2023-05-07T03:56:27;5.10;;;3.30;;
36599;SDS011;35385;55.668;37.508;2023-05-07T03:57:28;5.13;;;3.20;;
36599;SDS011;35385;55.668;37.508;2023-05-07T03:58:28;4.93;;;3.30;;
36599;SDS011;35385;55.668;37.508;2023-05-07T03:59:29;5.67;;;3.20;;
36599;SDS011;35385;55.668;37.508;2023-05-07T04:00:29;5.43;;;3.13;;
36599;SDS011;35385;55.668;37.508;2023-05-07T04:01:33;3.13;;;2.70;;
36599;SDS011;35385;55.668;37.508;2023-05-07T04:02:34;5.37;;;4.00;;
36599;SDS011;35385;55.668;37.508;2023-05-07T04:03:35;7.17;;;3.03;;
36599;SDS011;35385;55.668;37.508;2023-05-07T04:04:35;5.87;;;2.90;;
36599;SDS011;35385;55.668;37.508;2023-05-07T04:05:36;6.00;;;3.13;;
36599;SDS011;35385;55.668;37.508;2023-05-07T04:06:36;4.90;;;3.00;;
36599;SDS011;35385;55.668;37.508;2023-05-07T04:07:37;6.63;;;2.80;;
36599;SDS011;35385;55.668;37.508;2023-05-07T04:08:38;6.03;;;2.97;;
36599;SDS011;35385;55.668;37.508;2023-05-07T04:09:38;4.70;;;2.83;;
36599;SDS011;35385;55.668;37.508;2023-05-07T04:10:39;4.73;;;2.97;;
36599;SDS011;35385;55.668;37.508;2023-05-07T04:11:40;4.83;;;2.83;;
36599;SDS011;35385;55.668;37.508;2023-05-07T04:12:40;4.40;;;2.80;;
36599;SDS011;35385;55.668;37.508;2023-05-07T04:13:41;4.77;;;2.83;;
36599;SDS011;35385;55.668;37.508;2023-05-07T04:14:41;4.00;;;2.63;;
36599;SDS011;35385;55.668;37.508;2023-05-07T04:15:42;5.67;;;2.77;;
36599;SDS011;35385;55.668;37.508;2023-05-07T04:16:42;4.73;;;2.90;;
36599;SDS011;35385;55.668;37.508;2023-05-07T04:17:43;3.57;;;2.63;;
36599;SDS011;35385;55.668;37.508;2023-05-07T04:18:44;4.47;;;2.60;;
36599;SDS011;35385;55.668;37.508;2023-05-07T04:19:44;3.60;;;2.53;;
36599;SDS011;35385;55.668;37.508;2023-05-07T04:20:45;3.23;;;2.40;;
36599;SDS011;35385;55.668;37.508;2023-05-07T04:21:46;3.43;;;2.40;;
36599;SDS011;35385;55.668;37.508;2023-05-07T04:22:46;7.53;;;2.60;;
36599;SDS011;35385;55.668;37.508;2023-05-07T04:23:47;3.83;;;2.47;;
36599;SDS011;35385;55.668;37.508;2023-05-07T04:24:48;4.22;;;2.30;;
36599;SDS011;35385;55.668;37.508;2023-05-07T04:25:49;5.67;;;2.90;;
36599;SDS011;35385;55.668;37.508;2023-05-07T04:26:50;5.22;;;2.72;;
36599;SDS011;35385;55.668;37.508;2023-05-07T04:27:51;3.80;;;2.55;;
36599;SDS011;35385;55.668;37.508;2023-05-07T04:28:51;5.10;;;3.27;;
36599;SDS011;35385;55.668;37.508;2023-05-07T04:29:52;4.37;;;2.87;;
36599;SDS011;35385;55.668;37.508;2023-05-07T04:30:55;5.20;;;2.70;;
36599;SDS011;35385;55.668;37.508;2023-05-07T04:31:56;5.17;;;2.80;;
36599;SDS011;35385;55.668;37.508;2023-05-07T04:32:58;6.55;;;2.90;;
36599;SDS011;35385;55.668;37.508;2023-05-07T04:33:59;5.20;;;2.70;;
36599;SDS011;35385;55.668;37.508;2023-05-07T04:34:59;4.93;;;2.90;;
36599;SDS011;35385;55.668;37.508;2023-05-07T04:36:03;3.77;;;2.40;;
36599;SDS011;35385;55.668;37.508;2023-05-07T04:37:04;2.97;;;2.42;;
36599;SDS011;35385;55.668;37.508;2023-05-07T04:38:04;13.23;;;3.00;;
36599;SDS011;35385;55.668;37.508;2023-05-07T04:39:05;2.63;;;2.30;;
36599;SDS011;35385;55.668;37.508;2023-05-07T04:40:07;4.97;;;2.30;;
36599;SDS011;35385;55.668;37.508;2023-05-07T04:41:08;3.00;;;2.50;;
36599;SDS011;35385;55.668;37.508;2023-05-07T04:42:13;5.22;;;2.83;;
36599;SDS011;35385;55.668;37.508;2023-05-07T04:43:15;8.38;;;2.80;;
36599;SDS011;35385;55.668;37.508;2023-05-07T04:44:16;4.53;;;2.90;;
36599;SDS011;35385;55.668;37.508;2023-05-07T04:45:16;4.07;;;2.77;;
36599;SDS011;35385;55.668;37.508;2023-05-07T04:46:17;3.73;;;2.40;;
36599;SDS011;35385;55.668;37.508;2023-05-07T04:47:18;8.20;;;2.83;;
36599;SDS011;35385;55.668;37.508;2023-05-07T04:48:18;5.70;;;2.60;;
36599;SDS011;35385;55.668;37.508;2023-05-07T04:49:20;3.40;;;2.70;;
36599;SDS011;35385;55.668;37.508;2023-05-07T04:50:23;5.30;;;2.70;;
36599;SDS011;35385;55.668;37.508;2023-05-07T04:51:24;5.50;;;2.50;;
36599;SDS011;35385;55.668;37.508;2023-05-07T04:52:25;3.45;;;2.85;;
36599;SDS011;35385;55.668;37.508;2023-05-07T04:53:26;5.38;;;2.33;;
36599;SDS011;35385;55.668;37.508;2023-05-07T04:54:27;4.60;;;2.50;;
36599;SDS011;35385;55.668;37.508;2023-05-07T04:55:27;5.00;;;2.57;;
36599;SDS011;35385;55.668;37.508;2023-05-07T04:56:28;3.27;;;2.63;;
36599;SDS011;35385;55.668;37.508;2023-05-07T04:58:30;6.00;;;2.67;;
36599;SDS011;35385;55.668;37.508;2023-05-07T04:59:32;4.32;;;2.67;;
36599;SDS011;35385;55.668;37.508;2023-05-07T05:00:32;3.67;;;2.88;;
36599;SDS011;35385;55.668;37.508;2023-05-07T05:01:33;4.75;;;2.90;;
36599;SDS011;35385;55.668;37.508;2023-05-07T05:02:34;3.85;;;3.08;;
36599;SDS011;35385;55.668;37.508;2023-05-07T05:03:35;5.83;;;2.60;;
36599;SDS011;35385;55.668;37.508;2023-05-07T05:04:36;3.67;;;2.97;;
36599;SDS011;35385;55.668;37.508;2023-05-07T05:05:37;3.88;;;2.45;;
36599;SDS011;35385;55.668;37.508;2023-05-07T05:06:38;4.50;;;2.47;;
36599;SDS011;35385;55.668;37.508;2023-05-07T05:07:38;4.90;;;2.50;;
36599;SDS011;35385;55.668;37.508;2023-05-07T05:08:39;4.30;;;2.00;;
36599;SDS011;35385;55.668;37.508;2023-05-07T05:09:40;4.40;;;2.40;;
36599;SDS011;35385;55.668;37.508;2023-05-07T05:10:41;5.17;;;2.10;;
36599;SDS011;35385;55.668;37.508;2023-05-07T05:11:42;3.22;;;2.28;;
36599;SDS011;35385;55.668;37.508;2023-05-07T05:12:43;3.93;;;2.10;;
36599;SDS011;35385;55.668;37.508;2023-05-07T05:13:44;3.17;;;2.17;;
36599;SDS011;35385;55.668;37.508;2023-05-07T05:14:44;5.57;;;2.40;;
36599;SDS011;35385;55.668;37.508;2023-05-07T05:15:47;3.88;;;2.10;;
36599;SDS011;35385;55.668;37.508;2023-05-07T05:16:48;4.37;;;2.83;;
36599;SDS011;35385;55.668;37.508;2023-05-07T05:17:48;2.90;;;2.40;;
36599;SDS011;35385;55.668;37.508;2023-05-07T05:18:49;3.20;;;2.50;;
36599;SDS011;35385;55.668;37.508;2023-05-07T05:19:51;4.75;;;2.47;;
36599;SDS011;35385;55.668;37.508;2023-05-07T05:20:52;2.97;;;2.20;;
36599;SDS011;35385;55.668;37.508;2023-05-07T05:21:53;3.63;;;2.33;;
36599;SDS011;35385;55.668;37.508;2023-05-07T05:22:53;2.67;;;1.70;;
36599;SDS011;35385;55.668;37.508;2023-05-07T05:23:54;2.33;;;1.90;;
36599;SDS011;35385;55.668;37.508;2023-05-07T05:24:54;3.83;;;1.80;;
36599;SDS011;35385;55.668;37.508;2023-05-07T05:25:56;4.20;;;2.07;;
36599;SDS011;35385;55.668;37.508;2023-05-07T05:26:57;3.10;;;1.80;;
36599;SDS011;35385;55.668;37.508;2023-05-07T05:28:01;5.60;;;1.92;;
36599;SDS011;35385;55.668;37.508;2023-05-07T05:29:02;2.83;;;1.67;;
36599;SDS011;35385;55.668;37.508;2023-05-07T05:30:03;3.03;;;1.70;;
36599;SDS011;35385;55.668;37.508;2023-05-07T05:31:04;3.60;;;2.05;;
36599;SDS011;35385;55.668;37.508;2023-05-07T05:32:05;6.13;;;2.05;;
36599;SDS011;35385;55.668;37.508;2023-05-07T05:33:06;4.07;;;1.40;;
36599;SDS011;35385;55.668;37.508;2023-05-07T05:34:06;2.87;;;1.60;;
36599;SDS011;35385;55.668;37.508;2023-05-07T05:35:07;4.27;;;1.47;;
36599;SDS011;35385;55.668;37.508;2023-05-07T05:36:11;4.93;;;2.28;;
36599;SDS011;35385;55.668;37.508;2023-05-07T05:37:13;11.80;;;2.25;;
36599;SDS011;35385;55.668;37.508;2023-05-07T05:38:13;3.23;;;1.97;;
36599;SDS011;35385;55.668;37.508;2023-05-07T05:39:14;3.57;;;2.00;;
36599;SDS011;35385;55.668;37.508;2023-05-07T05:40:15;3.13;;;1.73;;
36599;SDS011;35385;55.668;37.508;2023-05-07T05:41:15;5.63;;;2.10;;
36599;SDS011;35385;55.668;37.508;2023-05-07T05:42:16;2.10;;;1.60;;
36599;SDS011;35385;55.668;37.508;2023-05-07T05:43:16;4.90;;;1.50;;
36599;SDS011;35385;55.668;37.508;2023-05-07T05:44:17;1.80;;;1.70;;
36599;SDS011;35385;55.668;37.508;2023-05-07T05:45:17;6.43;;;2.07;;
36599;SDS011;35385;55.668;37.508;2023-05-07T05:46:18;4.10;;;2.97;;
36599;SDS011;35385;55.668;37.508;2023-05-07T05:47:19;3.37;;;2.30;;
36599;SDS011;35385;55.668;37.508;2023-05-07T05:48:19;2.77;;;2.13;;
36599;SDS011;35385;55.668;37.508;2023-05-07T05:49:20;3.87;;;2.00;;
36599;SDS011;35385;55.668;37.508;2023-05-07T05:51:22;3.08;;;1.80;;
36599;SDS011;35385;55.668;37.508;2023-05-07T05:52:23;3.05;;;1.85;;
36599;SDS011;35385;55.668;37.508;2023-05-07T05:53:24;1.80;;;1.50;;
36599;SDS011;35385;55.668;37.508;2023-05-07T05:54:24;3.63;;;1.70;;
36599;SDS011;35385;55.668;37.508;2023-05-07T05:55:25;4.60;;;1.87;;
36599;SDS011;35385;55.668;37.508;2023-05-07T05:56:26;8.17;;;1.87;;
36599;SDS011;35385;55.668;37.508;2023-05-07T05:57:26;2.65;;;1.48;;
36599;SDS011;35385;55.668;37.508;2023-05-07T05:58:27;2.87;;;1.37;;
36599;SDS011;35385;55.668;37.508;2023-05-07T05:59:28;2.50;;;1.30;;
36599;SDS011;35385;55.668;37.508;2023-05-07T06:00:28;1.60;;;1.33;;
36599;SDS011;35385;55.668;37.508;2023-05-07T06:01:29;2.65;;;1.30;;
36599;SDS011;35385;55.668;37.508;2023-05-07T06:02:30;3.43;;;1.93;;
36599;SDS011;35385;55.668;37.508;2023-05-07T06:03:30;2.73;;;1.40;;
36599;SDS011;35385;55.668;37.508;2023-05-07T06:05:33;6.20;;;1.80;;
36599;SDS011;35385;55.668;37.508;2023-05-07T06:06:33;2.17;;;1.43;;
36599;SDS011;35385;55.668;37.508;2023-05-07T06:07:34;4.27;;;1.60;;
36599;SDS011;35385;55.668;37.508;2023-05-07T06:08:35;3.97;;;1.45;;
36599;SDS011;35385;55.668;37.508;2023-05-07T06:09:35;3.57;;;1.50;;